Keret — UAEH — position and weather

sailwx.info

Track history (hours):
 
Tides and Currents Weather Stations Pressure Air Temp Water Temp Dewpoint Dewpoint Depression Visibility Wind Speed Wind Dir Waves Ship Positions

Keret

Last reported at 2016-Feb-20 00:28 UTC. Time now 2016-Aug-25 02:41 UTC.
Position N 54°40' E 019°48'.
Warning: this ship's position is months out of date.

Length 82 m; draft 3.2 m.

Type: Cargo ship. MMSI: 273333000.

Date/timePositionNaut miles runAvg speedWind from/ knotsBaromVisibWave heightAir tempDewpointWater temp
2016-Feb-20 00:28N 54°40' E 019°48'16 1.6
2016-Feb-19 14:33N 54°46' E 019°23'10 9.9
2016-Feb-19 13:33N 54°49' E 019°07'10 9.6
2016-Feb-19 12:33N 54°53' E 018°51'10 9.7
2016-Feb-19 11:33N 54°55' E 018°35'1010.0
2016-Feb-19 10:33N 54°56' E 018°18'188 9.6
2016-Feb-18 15:03N 54°43' E 012°53'5 9.2
2016-Feb-18 14:33N 54°42' E 012°45'20 9.6
2016-Feb-18 12:25N 54°30' E 012°16'8 8.7
2016-Feb-18 11:33N 54°24' E 012°07'10 9.9
2016-Feb-18 10:33N 54°25' E 011°51'9 9.4
2016-Feb-18 09:33N 54°28' E 011°35'9 9.0
2016-Feb-18 08:33N 54°32' E 011°21'9 9.1
2016-Feb-18 07:33N 54°35' E 011°07'9 9.5
2016-Feb-18 06:33N 54°35' E 010°51'1010.0
2016-Feb-18 05:33N 54°33' E 010°34'14 9.6
2016-Feb-18 04:06N 54°25' E 010°13'5 8.1
2016-Feb-18 03:33N 54°22' E 010°08'2 2.2
2016-Feb-18 02:33N 54°22' E 010°05'8 7.6
2016-Feb-18 01:33N 54°22' E 009°52'25 7.4
2016-Feb-17 22:06N 54°05' E 009°19'5 8.7
2016-Feb-17 21:32N 54°00' E 009°18'7 7.1
2016-Feb-17 20:33N 53°55' E 009°10'3 2.5
2016-Feb-17 19:33N 53°53' E 009°07'1110.6
2016-Feb-17 18:33N 53°50' E 008°50'1110.8
2016-Feb-17 17:33N 53°57' E 008°36'1211.6
2016-Feb-17 16:33N 53°59' E 008°17'1110.9
2016-Feb-17 15:33N 53°57' E 007°58'1110.8
2016-Feb-17 14:32N 53°55' E 007°40'1111.0
2016-Feb-17 13:33N 53°53' E 007°22'1010.5
2016-Feb-17 12:33N 53°50' E 007°05'10 9.6
2016-Feb-17 11:33N 53°48' E 006°49'9 9.0
2016-Feb-17 10:33N 53°46' E 006°34'9 9.0
2016-Feb-17 09:33N 53°44' E 006°19'9 9.2
2016-Feb-17 08:33N 53°41' E 006°04'9 9.5
2016-Feb-17 07:33N 53°38' E 005°50'9 9.2
2016-Feb-17 06:33N 53°35' E 005°35'9 9.3
2016-Feb-17 05:33N 53°32' E 005°20'10 9.6
2016-Feb-17 04:33N 53°29' E 005°05'40 9.9
2016-Feb-17 00:32N 52°58' E 004°21'1110.8
2016-Feb-16 23:32N 52°49' E 004°12'310.9
2016-Feb-16 23:15N 52°47' E 004°09'810.9
2016-Feb-16 22:32N 52°41' E 004°00'310.9
2016-Feb-16 22:18N 52°39' E 003°57'2411.1
2016-Feb-16 20:09N 52°22' E 003°30'711.3
2016-Feb-16 19:32N 52°17' E 003°22'1111.0
2016-Feb-16 18:32N 52°09' E 003°10'1010.4
2016-Feb-16 17:32N 52°01' E 002°59'9 9.6
2016-Feb-16 16:33N 51°54' E 002°49'19 8.4
2016-Feb-16 14:17N 51°35' E 002°43'7 9.0
2016-Feb-16 13:33N 51°29' E 002°44'7 7.5
2016-Feb-16 12:33N 51°22' E 002°49'1111.1
2016-Feb-16 11:32N 51°22' E 003°07'3 2.8
2016-Feb-16 10:32N 51°21' E 003°11'0 0.0
2016-Feb-16 09:32N 51°21' E 003°11'0 0.0
2016-Feb-16 08:32N 51°21' E 003°11'0 0.0
2016-Feb-16 07:32N 51°21' E 003°11'0 0.0
2016-Feb-16 06:32N 51°21' E 003°11'0 0.0
2016-Feb-16 05:32N 51°21' E 003°11'0 0.0
2016-Feb-15 16:13N 51°21' E 003°11'3 4.3
2016-Feb-15 15:31N 51°22' E 003°07'8 8.6
2016-Feb-15 14:33N 51°21' E 002°53'8 7.5
2016-Feb-15 13:33N 51°23' E 002°41'4 4.3
2016-Feb-15 12:32N 51°27' E 002°41'2 1.0
2016-Feb-15 10:10N 51°30' E 002°42'0 0.7
2016-Feb-15 09:33N 51°29' E 002°42'2 0.5
2016-Feb-15 06:32N 51°31' E 002°42'1 0.6
2016-Feb-15 05:33N 51°31' E 002°42'77 8.2
2016-Feb-14 20:12N 52°35' E 003°51'5 8.0
2016-Feb-14 19:33N 52°37' E 003°59'7 6.6
2016-Feb-14 18:33N 52°33' E 004°09'9 8.9
2016-Feb-14 17:33N 52°30' E 004°22'9 8.5
2016-Feb-14 16:33N 52°28' E 004°36'2 1.5
2016-Feb-14 15:33N 52°28' E 004°38'0 0.0
2016-Feb-14 14:33N 52°28' E 004°38'0 0.0
2016-Feb-14 13:33N 52°28' E 004°38'0 0.0
2016-Feb-14 12:33N 52°28' E 004°38'0 0.0
2016-Feb-14 11:33N 52°28' E 004°38'0 0.0
2016-Feb-14 10:33N 52°28' E 004°38'0 0.0
2016-Feb-14 09:33N 52°28' E 004°38'0 0.0
2016-Feb-14 08:33N 52°28' E 004°38'0 0.0
2016-Feb-14 07:33N 52°28' E 004°38'1 0.6
2016-Feb-14 06:33N 52°28' E 004°37'4 4.2
2016-Feb-14 05:33N 52°28' E 004°30'8 7.5
2016-Feb-14 04:34N 52°28' E 004°18'7 7.2
2016-Feb-14 03:34N 52°28' E 004°06'85 7.6
2016-Feb-13 16:27N 51°33' E 002°22'910.2
2016-Feb-13 15:34N 51°26' E 002°13'1010.4
2016-Feb-13 14:34N 51°16' E 002°06'1010.1
2016-Feb-13 13:33N 51°09' E 001°54'10 9.6
2016-Feb-13 12:33N 51°03' E 001°42'8 8.4
2016-Feb-13 11:34N 50°57' E 001°34'185 8.4
2016-Feb-12 13:28N 50°10' W 003°07'8 8.9
2016-Feb-12 12:34N 50°08' W 003°20'84 4.8
2016-Feb-11 19:15N 50°41' W 005°21'96 9.6
2016-Feb-11 09:18N 51°27' W 003°07'7 9.5
2016-Feb-11 08:33N 51°32' W 002°59'2 0.1
2016-Feb-10 08:20N 51°34' W 002°58'2 2.2
2016-Feb-10 07:30N 51°32' W 002°58'  
Track history (hours):
 
Tides and Currents Weather Stations Pressure Air Temp Water Temp Dewpoint Dewpoint Depression Visibility Wind Speed Wind Dir Waves Ship Positions

Keret

Last reported at 2016-Feb-20 00:28 UTC. Time now 2016-Aug-25 02:41 UTC.
Position N 54°40' E 019°48'.
Warning: this ship's position is months out of date.

Length 82 m; draft 3.2 m.

Type: Cargo ship. MMSI: 273333000.

Date/timePositionNaut miles runAvg speedWind from/ knotsBaromVisibWave heightAir tempDewpointWater temp
2016-Feb-20 00:28N 54°40' E 019°48'16 1.6
2016-Feb-19 14:33N 54°46' E 019°23'10 9.9
2016-Feb-19 13:33N 54°49' E 019°07'10 9.6
2016-Feb-19 12:33N 54°53' E 018°51'10 9.7
2016-Feb-19 11:33N 54°55' E 018°35'1010.0
2016-Feb-19 10:33N 54°56' E 018°18'188 9.6
2016-Feb-18 15:03N 54°43' E 012°53'5 9.2
2016-Feb-18 14:33N 54°42' E 012°45'20 9.6
2016-Feb-18 12:25N 54°30' E 012°16'8 8.7
2016-Feb-18 11:33N 54°24' E 012°07'10 9.9
2016-Feb-18 10:33N 54°25' E 011°51'9 9.4
2016-Feb-18 09:33N 54°28' E 011°35'9 9.0
2016-Feb-18 08:33N 54°32' E 011°21'9 9.1
2016-Feb-18 07:33N 54°35' E 011°07'9 9.5
2016-Feb-18 06:33N 54°35' E 010°51'1010.0
2016-Feb-18 05:33N 54°33' E 010°34'14 9.6
2016-Feb-18 04:06N 54°25' E 010°13'5 8.1
2016-Feb-18 03:33N 54°22' E 010°08'2 2.2
2016-Feb-18 02:33N 54°22' E 010°05'8 7.6
2016-Feb-18 01:33N 54°22' E 009°52'25 7.4
2016-Feb-17 22:06N 54°05' E 009°19'5 8.7
2016-Feb-17 21:32N 54°00' E 009°18'7 7.1
2016-Feb-17 20:33N 53°55' E 009°10'3 2.5
2016-Feb-17 19:33N 53°53' E 009°07'1110.6
2016-Feb-17 18:33N 53°50' E 008°50'1110.8
2016-Feb-17 17:33N 53°57' E 008°36'1211.6
2016-Feb-17 16:33N 53°59' E 008°17'1110.9
2016-Feb-17 15:33N 53°57' E 007°58'1110.8
2016-Feb-17 14:32N 53°55' E 007°40'1111.0
2016-Feb-17 13:33N 53°53' E 007°22'1010.5
2016-Feb-17 12:33N 53°50' E 007°05'10 9.6
2016-Feb-17 11:33N 53°48' E 006°49'9 9.0
2016-Feb-17 10:33N 53°46' E 006°34'9 9.0
2016-Feb-17 09:33N 53°44' E 006°19'9 9.2
2016-Feb-17 08:33N 53°41' E 006°04'9 9.5
2016-Feb-17 07:33N 53°38' E 005°50'9 9.2
2016-Feb-17 06:33N 53°35' E 005°35'9 9.3
2016-Feb-17 05:33N 53°32' E 005°20'10 9.6
2016-Feb-17 04:33N 53°29' E 005°05'40 9.9
2016-Feb-17 00:32N 52°58' E 004°21'1110.8
2016-Feb-16 23:32N 52°49' E 004°12'310.9
2016-Feb-16 23:15N 52°47' E 004°09'810.9
2016-Feb-16 22:32N 52°41' E 004°00'310.9
2016-Feb-16 22:18N 52°39' E 003°57'2411.1
2016-Feb-16 20:09N 52°22' E 003°30'711.3
2016-Feb-16 19:32N 52°17' E 003°22'1111.0
2016-Feb-16 18:32N 52°09' E 003°10'1010.4
2016-Feb-16 17:32N 52°01' E 002°59'9 9.6
2016-Feb-16 16:33N 51°54' E 002°49'19 8.4
2016-Feb-16 14:17N 51°35' E 002°43'7 9.0
2016-Feb-16 13:33N 51°29' E 002°44'7 7.5
2016-Feb-16 12:33N 51°22' E 002°49'1111.1
2016-Feb-16 11:32N 51°22' E 003°07'3 2.8
2016-Feb-16 10:32N 51°21' E 003°11'0 0.0
2016-Feb-16 09:32N 51°21' E 003°11'0 0.0
2016-Feb-16 08:32N 51°21' E 003°11'0 0.0
2016-Feb-16 07:32N 51°21' E 003°11'0 0.0
2016-Feb-16 06:32N 51°21' E 003°11'0 0.0
2016-Feb-16 05:32N 51°21' E 003°11'0 0.0
2016-Feb-15 16:13N 51°21' E 003°11'3 4.3
2016-Feb-15 15:31N 51°22' E 003°07'8 8.6
2016-Feb-15 14:33N 51°21' E 002°53'8 7.5
2016-Feb-15 13:33N 51°23' E 002°41'4 4.3
2016-Feb-15 12:32N 51°27' E 002°41'2 1.0
2016-Feb-15 10:10N 51°30' E 002°42'0 0.7
2016-Feb-15 09:33N 51°29' E 002°42'2 0.5
2016-Feb-15 06:32N 51°31' E 002°42'1 0.6
2016-Feb-15 05:33N 51°31' E 002°42'77 8.2
2016-Feb-14 20:12N 52°35' E 003°51'5 8.0
2016-Feb-14 19:33N 52°37' E 003°59'7 6.6
2016-Feb-14 18:33N 52°33' E 004°09'9 8.9
2016-Feb-14 17:33N 52°30' E 004°22'9 8.5
2016-Feb-14 16:33N 52°28' E 004°36'2 1.5
2016-Feb-14 15:33N 52°28' E 004°38'0 0.0
2016-Feb-14 14:33N 52°28' E 004°38'0 0.0
2016-Feb-14 13:33N 52°28' E 004°38'0 0.0
2016-Feb-14 12:33N 52°28' E 004°38'0 0.0
2016-Feb-14 11:33N 52°28' E 004°38'0 0.0
2016-Feb-14 10:33N 52°28' E 004°38'0 0.0
2016-Feb-14 09:33N 52°28' E 004°38'0 0.0
2016-Feb-14 08:33N 52°28' E 004°38'0 0.0
2016-Feb-14 07:33N 52°28' E 004°38'1 0.6
2016-Feb-14 06:33N 52°28' E 004°37'4 4.2
2016-Feb-14 05:33N 52°28' E 004°30'8 7.5
2016-Feb-14 04:34N 52°28' E 004°18'7 7.2
2016-Feb-14 03:34N 52°28' E 004°06'85 7.6
2016-Feb-13 16:27N 51°33' E 002°22'910.2
2016-Feb-13 15:34N 51°26' E 002°13'1010.4
2016-Feb-13 14:34N 51°16' E 002°06'1010.1
2016-Feb-13 13:33N 51°09' E 001°54'10 9.6
2016-Feb-13 12:33N 51°03' E 001°42'8 8.4
2016-Feb-13 11:34N 50°57' E 001°34'185 8.4
2016-Feb-12 13:28N 50°10' W 003°07'8 8.9
2016-Feb-12 12:34N 50°08' W 003°20'84 4.8
2016-Feb-11 19:15N 50°41' W 005°21'96 9.6
2016-Feb-11 09:18N 51°27' W 003°07'7 9.5
2016-Feb-11 08:33N 51°32' W 002°59'2 0.1
2016-Feb-10 08:20N 51°34' W 002°58'2 2.2
2016-Feb-10 07:30N 51°32' W 002°58'  

Dump ship's entire track history